Tupper Lake, NY (12986)

1:30 PM EDT on July 26, 2016 (GMT -0400)
The Wild Center | | Change Station

Elev 1640 ft 44.22 °N, 74.44 °W | Updated 1 second ago

Overcast
Overcast
74.9 °F
Feels Like 77 °F
N
3.0
Wind Variable Wind from WNW
Gusts 12.0 mph

Today
High -- | Low -- °F
--% Chance of Precip.
Yesterday
High -- | Low -- °F
Precip. -- in
Pressure 29.91 in
Visibility 10.0 miles
Clouds Few 3400 ft
Scattered Clouds 5000 ft
Overcast 6000 ft
Heat Index 77 °F
Dew Point 63 °F
Humidity 66%
Rainfall 0.00 in
Snow Depth Not available.
5:39 AM 8:28 PM
Waning Gibbous, 53% visible
METAR KSLK 261651Z AUTO 29008G15KT 250V330 10SM FEW034 SCT050 OVC060 22/13 A2993 RMK AO2 SLP127 T02220133
Pressure 29.91 in
Visibility 10.0 miles
Clouds Few 3400 ft
Scattered Clouds 5000 ft
Overcast 6000 ft
Heat Index 77 °F
Dew Point 63 °F
Humidity 66%
Rainfall 0.00 in
Snow Depth Not available.
5:39 AM 8:28 PM
Waning Gibbous, 53% visible
METAR KSLK 261651Z AUTO 29008G15KT 250V330 10SM FEW034 SCT050 OVC060 22/13 A2993 RMK AO2 SLP127 T02220133

10-Day Weather Forecast

Almanac

Astronomy

Jul. 26, 2016 Rise Set
Actual Time
Civil Twilight
Nautical Twilight
Astronomical Twilight
Moon
Length of Visible Light
Length of Day
Tomorrow will be .
, % of the Moon is Illuminated

Today's Extremes

State Highs State Lows

Community

WunderPhotos

Upload Photos

1,927,640 photos uploaded!

WunderBlog® & News

Nearby

Air Quality

  Air Quality AQ Index Pollutant
Not available.

Snow Depth

Station Depth Elevation

Earthquake Activity

City Distance Mag. Time & Date
Minimum magnitude displayed is 2.5.

Coastal Water Temperatures

Place Temperature

Stations

Nearby Weather Stations

Station Location Temp. Windchill Dew Point Humidity Wind Precip. Elev Updated Type
                   

Watches & Warnings

There are currently no watches in effect.